createdAt,value
2017-05-02T00:00:02.845Z,0
2017-05-02T00:00:43.264Z,0
2017-05-02T00:01:26.507Z,0
2017-05-02T00:02:06.950Z,0
2017-05-02T00:02:47.418Z,0
2017-05-02T00:03:27.856Z,0
2017-05-02T00:04:08.213Z,0
2017-05-02T00:04:50.368Z,0
2017-05-02T00:05:30.800Z,0
2017-05-02T00:06:11.819Z,0
2017-05-02T00:06:53.142Z,0
2017-05-02T00:07:34.402Z,0
2017-05-02T00:08:14.802Z,0
2017-05-02T00:08:55.232Z,0
2017-05-02T00:09:35.649Z,0
2017-05-02T00:10:16.062Z,0
2017-05-02T00:10:56.577Z,0
2017-05-02T00:11:36.942Z,0
2017-05-02T00:12:17.943Z,0
2017-05-02T00:12:59.296Z,0
2017-05-02T00:13:39.681Z,0
2017-05-02T00:14:20.058Z,0
2017-05-02T00:15:01.275Z,0
2017-05-02T00:15:41.684Z,0
2017-05-02T00:16:23.415Z,0
2017-05-02T00:17:03.845Z,0
2017-05-02T00:17:44.253Z,0
2017-05-02T00:18:26.503Z,0
2017-05-02T00:19:06.894Z,0
2017-05-02T00:19:47.364Z,0
2017-05-02T00:20:27.748Z,0
2017-05-02T00:21:08.217Z,0
2017-05-02T00:21:48.625Z,0
2017-05-02T00:22:28.996Z,0
2017-05-02T00:23:09.430Z,0
2017-05-02T00:23:49.799Z,0
2017-05-02T00:24:30.797Z,0
2017-05-02T00:25:12.194Z,0
2017-05-02T00:25:52.602Z,0
2017-05-02T00:26:33.924Z,0
2017-05-02T00:27:14.966Z,0
2017-05-02T00:27:55.368Z,0
2017-05-02T00:28:35.814Z,0
2017-05-02T00:29:16.205Z,0
2017-05-02T00:29:58.992Z,0
2017-05-02T00:30:39.486Z,0
2017-05-02T00:31:20.505Z,0
2017-05-02T00:32:00.990Z,0
2017-05-02T00:32:41.962Z,0
2017-05-02T00:33:22.365Z,0
2017-05-02T00:34:03.614Z,0
2017-05-02T00:34:44.931Z,0
2017-05-02T00:35:25.303Z,0
2017-05-02T00:36:05.768Z,0
2017-05-02T00:36:46.183Z,0
2017-05-02T00:37:26.584Z,0
2017-05-02T00:38:08.423Z,0
2017-05-02T00:38:49.734Z,0
2017-05-02T00:39:31.811Z,0
2017-05-02T00:40:12.945Z,0
2017-05-02T00:40:53.380Z,0
2017-05-02T00:41:35.419Z,0
2017-05-02T00:42:15.825Z,0
2017-05-02T00:42:56.219Z,0
2017-05-02T00:43:37.622Z,0
2017-05-02T00:44:18.689Z,0
2017-05-02T00:44:59.065Z,0
2017-05-02T00:45:39.504Z,0
2017-05-02T00:46:21.492Z,0
2017-05-02T00:47:02.707Z,0
2017-05-02T00:47:43.106Z,0
2017-05-02T00:48:23.475Z,0
2017-05-02T00:49:03.937Z,0
2017-05-02T00:49:44.442Z,0
2017-05-02T00:50:26.537Z,0
2017-05-02T00:51:06.927Z,0
2017-05-02T00:51:48.256Z,0
2017-05-02T00:52:28.705Z,0
2017-05-02T00:53:09.087Z,0
2017-05-02T00:53:49.456Z,0
2017-05-02T00:54:29.923Z,0
2017-05-02T00:55:11.015Z,0
2017-05-02T00:55:51.912Z,0
2017-05-02T00:56:32.337Z,0
2017-05-02T00:57:13.613Z,0
2017-05-02T00:57:53.972Z,0
2017-05-02T00:58:34.473Z,0
2017-05-02T00:59:14.895Z,0
2017-05-02T00:59:55.314Z,0
2017-05-02T01:00:36.314Z,0
2017-05-02T01:01:18.457Z,0
2017-05-02T01:01:58.871Z,0
2017-05-02T01:02:39.245Z,0
2017-05-02T01:03:19.764Z,0
2017-05-02T01:04:01.326Z,0
2017-05-02T01:04:41.728Z,0
2017-05-02T01:05:22.456Z,0
2017-05-02T01:06:02.869Z,0
2017-05-02T01:06:43.901Z,0
2017-05-02T01:07:24.380Z,0
2017-05-02T01:08:05.657Z,0
2017-05-02T01:08:46.090Z,0
2017-05-02T01:09:26.506Z,0
2017-05-02T01:10:07.671Z,0
2017-05-02T01:10:48.142Z,0
2017-05-02T01:11:28.558Z,0
2017-05-02T01:12:08.972Z,0
2017-05-02T01:12:49.424Z,0
2017-05-02T01:13:29.820Z,0
2017-05-02T01:14:10.258Z,0
2017-05-02T01:14:50.652Z,0
2017-05-02T01:15:32.483Z,0
2017-05-02T01:16:12.885Z,0
2017-05-02T01:16:53.988Z,0
2017-05-02T01:17:34.483Z,0
2017-05-02T01:18:15.552Z,0
2017-05-02T01:18:56.001Z,0
2017-05-02T01:19:36.408Z,0
2017-05-02T01:20:16.851Z,0
2017-05-02T01:20:57.712Z,0
2017-05-02T01:21:39.627Z,0
2017-05-02T01:22:19.974Z,0
2017-05-02T01:23:00.443Z,0
2017-05-02T01:23:41.206Z,0
2017-05-02T01:24:22.418Z,0
2017-05-02T01:25:02.743Z,0
2017-05-02T01:25:43.122Z,0
2017-05-02T01:26:23.579Z,0
2017-05-02T01:27:03.991Z,0
2017-05-02T01:27:44.358Z,0
2017-05-02T01:28:24.804Z,0
2017-05-02T01:29:05.291Z,0
2017-05-02T01:29:45.624Z,0
2017-05-02T01:30:26.072Z,0
2017-05-02T01:31:06.494Z,0
2017-05-02T01:31:46.883Z,0
2017-05-02T01:32:27.289Z,0
2017-05-02T01:33:07.710Z,0
2017-05-02T01:33:48.071Z,0
2017-05-02T01:34:28.468Z,0
2017-05-02T01:35:09.527Z,0
2017-05-02T01:35:50.029Z,0
2017-05-02T01:36:32.025Z,0
2017-05-02T01:37:12.437Z,0
2017-05-02T01:37:52.881Z,0
2017-05-02T01:38:33.260Z,0
2017-05-02T01:39:15.156Z,0
2017-05-02T02:02:19.128Z,0
2017-05-02T02:02:59.388Z,0
2017-05-02T02:03:40.551Z,0
2017-05-02T02:04:20.994Z,0
2017-05-02T02:05:01.362Z,0
2017-05-02T02:05:41.743Z,0
2017-05-02T02:06:22.164Z,0
2017-05-02T02:07:02.614Z,0
2017-05-02T02:07:42.946Z,0
2017-05-02T02:08:23.382Z,0
2017-05-02T02:09:03.861Z,0
2017-05-02T02:09:44.696Z,0
2017-05-02T02:10:25.408Z,0
2017-05-02T02:11:05.884Z,0
2017-05-02T02:11:46.241Z,0
2017-05-02T02:12:26.641Z,0
2017-05-02T02:13:07.143Z,0
2017-05-02T02:13:48.383Z,0
2017-05-02T02:14:28.776Z,0
2017-05-02T02:15:09.200Z,0
2017-05-02T02:15:49.591Z,0
2017-05-02T02:16:30.103Z,0
2017-05-02T02:17:10.662Z,0
2017-05-02T02:17:51.118Z,0
2017-05-02T02:18:31.638Z,0
2017-05-02T02:19:12.642Z,0
2017-05-02T02:19:54.956Z,0
2017-05-02T02:20:35.349Z,0
2017-05-02T02:21:15.792Z,0
2017-05-02T02:21:56.220Z,0
2017-05-02T02:22:36.591Z,0
2017-05-02T02:23:16.975Z,0
2017-05-02T02:23:57.391Z,0
2017-05-02T02:24:38.001Z,0
2017-05-02T02:25:18.441Z,0
2017-05-02T02:25:58.833Z,0
2017-05-02T02:26:39.541Z,0
2017-05-02T02:27:19.916Z,0
2017-05-02T02:28:00.284Z,0
2017-05-02T02:28:40.698Z,0
2017-05-02T02:29:21.132Z,0
2017-05-02T02:30:01.559Z,0
2017-05-02T02:30:41.983Z,0
2017-05-02T02:31:23.136Z,0
2017-05-02T02:32:03.634Z,0
2017-05-02T02:32:44.057Z,0
2017-05-02T02:33:24.485Z,0
2017-05-02T02:34:04.956Z,0
2017-05-02T02:34:45.356Z,0
2017-05-02T02:35:26.635Z,0
2017-05-02T02:36:07.616Z,0
2017-05-02T02:36:48.047Z,0
2017-05-02T02:37:28.463Z,0
2017-05-02T02:38:08.853Z,0
2017-05-02T02:38:49.279Z,0
2017-05-02T02:39:29.649Z,0
2017-05-02T02:40:10.204Z,0
2017-05-02T02:40:50.616Z,0
2017-05-02T02:41:31.055Z,0
2017-05-02T02:42:12.173Z,0
2017-05-02T02:42:52.905Z,0
2017-05-02T02:43:34.148Z,0
2017-05-02T02:44:14.529Z,0
2017-05-02T02:44:54.961Z,0
2017-05-02T02:45:35.356Z,0
2017-05-02T02:46:15.756Z,0
2017-05-02T02:46:56.186Z,0
2017-05-02T02:47:36.554Z,0
2017-05-02T02:48:16.961Z,0
2017-05-02T02:48:57.387Z,0
2017-05-02T02:49:37.780Z,0
2017-05-02T02:50:18.149Z,0
2017-05-02T02:50:58.539Z,0
2017-05-02T02:51:38.942Z,0
2017-05-02T02:52:19.373Z,0
2017-05-02T02:52:59.790Z,0
2017-05-02T02:53:40.172Z,0
2017-05-02T02:54:20.540Z,0
2017-05-02T02:55:01.009Z,0
2017-05-02T02:55:42.142Z,0
2017-05-02T02:56:22.790Z,0
2017-05-02T02:57:03.237Z,0
2017-05-02T02:57:43.614Z,0
2017-05-02T02:58:24.074Z,0
2017-05-02T02:59:04.481Z,0
2017-05-02T02:59:44.889Z,0
2017-05-02T03:00:25.304Z,0
2017-05-02T03:01:05.662Z,0
2017-05-02T03:01:46.086Z,0
2017-05-02T03:02:26.524Z,0
2017-05-02T03:03:06.925Z,0
2017-05-02T03:03:47.318Z,0
2017-05-02T03:04:27.754Z,0
2017-05-02T03:05:08.161Z,0
2017-05-02T03:05:48.516Z,0
2017-05-02T03:06:28.901Z,0
2017-05-02T03:07:09.344Z,0
2017-05-02T03:07:49.733Z,0
2017-05-02T03:08:30.158Z,0
2017-05-02T03:09:10.574Z,0
2017-05-02T03:09:50.982Z,0
2017-05-02T03:10:31.387Z,0
2017-05-02T03:11:11.839Z,0
2017-05-02T03:11:52.975Z,0
2017-05-02T03:12:33.357Z,0
2017-05-02T03:13:13.775Z,0
2017-05-02T03:13:54.555Z,0
2017-05-02T03:14:35.008Z,0
2017-05-02T03:15:15.491Z,0
2017-05-02T03:15:55.900Z,0
2017-05-02T03:16:36.441Z,0
2017-05-02T03:17:17.025Z,0
2017-05-02T03:17:57.550Z,0
2017-05-02T03:18:38.122Z,0
2017-05-02T03:19:19.724Z,0
2017-05-02T03:20:00.278Z,0
2017-05-02T03:20:40.695Z,0
2017-05-02T03:21:21.089Z,0
2017-05-02T03:22:01.464Z,0
2017-05-02T03:22:41.964Z,0
2017-05-02T03:23:22.588Z,0
2017-05-02T03:24:02.966Z,0
2017-05-02T03:24:43.988Z,0
2017-05-02T03:25:24.399Z,0
2017-05-02T03:26:04.951Z,0
2017-05-02T03:26:45.524Z,0
2017-05-02T03:27:25.974Z,0
2017-05-02T03:28:06.373Z,0
2017-05-02T03:28:46.845Z,0
2017-05-02T03:29:27.237Z,0
2017-05-02T03:30:09.167Z,0
2017-05-02T03:30:50.509Z,0
2017-05-02T03:31:30.925Z,0
2017-05-02T03:32:11.232Z,0
2017-05-02T03:32:52.632Z,0
2017-05-02T03:33:33.052Z,0
2017-05-02T03:34:13.496Z,0
2017-05-02T03:34:54.055Z,0
2017-05-02T03:35:34.365Z,0
2017-05-02T03:36:14.748Z,0
2017-05-02T03:36:55.150Z,0
2017-05-02T03:37:35.584Z,0
2017-05-02T03:38:16.029Z,0
2017-05-02T03:38:56.416Z,0
2017-05-02T03:39:36.794Z,0
2017-05-02T03:40:17.326Z,0
2017-05-02T03:40:58.291Z,0
2017-05-02T03:41:40.158Z,0
2017-05-02T03:42:21.192Z,0
2017-05-02T03:43:01.634Z,0
2017-05-02T03:43:42.135Z,0
2017-05-02T03:44:23.838Z,0
2017-05-02T03:45:04.100Z,0
2017-05-02T03:45:44.501Z,0
2017-05-02T03:46:24.929Z,0
2017-05-02T03:47:05.365Z,0
2017-05-02T03:47:45.813Z,0
2017-05-02T03:48:26.315Z,0
2017-05-02T03:49:06.720Z,0
2017-05-02T03:49:47.146Z,0
2017-05-02T03:50:27.540Z,0
2017-05-02T03:51:07.903Z,0
2017-05-02T03:51:48.338Z,0
2017-05-02T03:52:28.790Z,0
2017-05-02T03:53:09.751Z,0
2017-05-02T03:53:50.720Z,0
2017-05-02T03:54:31.126Z,0
2017-05-02T03:55:11.597Z,0
2017-05-02T03:55:51.976Z,0
2017-05-02T03:56:32.423Z,0
2017-05-02T03:57:12.838Z,0
2017-05-02T03:57:53.237Z,0
2017-05-02T03:58:33.682Z,0
2017-05-02T03:59:14.138Z,0
2017-05-02T03:59:54.470Z,0
2017-05-02T04:00:34.934Z,0
2017-05-02T04:01:15.352Z,0
2017-05-02T04:01:55.741Z,0
2017-05-02T04:02:36.158Z,0
2017-05-02T04:03:17.421Z,0
2017-05-02T04:03:57.871Z,0
2017-05-02T04:04:38.257Z,0
2017-05-02T04:05:19.642Z,0
2017-05-02T04:06:00.087Z,0
2017-05-02T04:06:43.108Z,0
2017-05-02T04:07:23.556Z,0
2017-05-02T04:08:04.001Z,0
2017-05-02T04:08:44.360Z,0
2017-05-02T04:09:24.823Z,0
2017-05-02T04:10:05.201Z,0
2017-05-02T04:10:45.593Z,0
2017-05-02T04:11:26.037Z,0
2017-05-02T04:12:06.421Z,5
2017-05-02T04:12:46.835Z,5
2017-05-02T04:13:27.265Z,5
2017-05-02T04:14:08.482Z,5
2017-05-02T04:14:48.875Z,5
2017-05-02T04:15:29.314Z,5
2017-05-02T04:16:09.819Z,5
2017-05-02T04:16:50.176Z,5
2017-05-02T04:17:30.595Z,5
2017-05-02T04:18:11.014Z,5
2017-05-02T04:18:51.403Z,5
2017-05-02T04:19:31.852Z,5
2017-05-02T04:20:12.263Z,5
2017-05-02T04:20:53.326Z,5
2017-05-02T04:21:33.691Z,10
2017-05-02T04:22:14.883Z,5
2017-05-02T04:22:55.330Z,10
2017-05-02T04:23:36.715Z,10
2017-05-02T04:24:17.127Z,10
2017-05-02T04:24:57.587Z,10
2017-05-02T04:25:37.990Z,10
2017-05-02T04:26:18.392Z,10
2017-05-02T04:26:58.857Z,10
2017-05-02T04:27:39.225Z,10
2017-05-02T04:28:19.632Z,10
2017-05-02T04:29:00.040Z,10
2017-05-02T04:29:40.487Z,10
2017-05-02T04:30:20.862Z,10
2017-05-02T04:31:01.241Z,10
2017-05-02T04:31:41.656Z,10
2017-05-02T04:32:23.852Z,10
2017-05-02T04:33:04.294Z,10
2017-05-02T04:33:45.250Z,15
2017-05-02T04:34:25.656Z,15
2017-05-02T04:35:06.044Z,15
2017-05-02T04:35:46.467Z,15
2017-05-02T04:36:26.811Z,15
2017-05-02T04:37:07.248Z,15
2017-05-02T04:37:47.704Z,15
2017-05-02T04:38:28.063Z,15
2017-05-02T04:39:08.475Z,15
2017-05-02T04:39:48.892Z,15
2017-05-02T04:40:29.335Z,15
2017-05-02T04:41:09.759Z,15
2017-05-02T04:41:50.193Z,15
2017-05-02T04:42:30.593Z,20
2017-05-02T04:43:10.946Z,20
2017-05-02T04:43:51.394Z,20
2017-05-02T04:44:31.825Z,20
2017-05-02T04:45:12.242Z,20
2017-05-02T04:45:52.652Z,20
2017-05-02T04:46:33.105Z,20
2017-05-02T04:47:13.478Z,20
2017-05-02T04:47:53.866Z,25
2017-05-02T04:48:35.191Z,25
2017-05-02T04:49:15.512Z,25
2017-05-02T04:49:55.947Z,25
2017-05-02T04:50:36.383Z,25
2017-05-02T04:51:16.731Z,25
2017-05-02T04:51:57.142Z,30
2017-05-02T04:52:37.759Z,30
2017-05-02T04:53:18.188Z,35
2017-05-02T04:53:58.567Z,35
2017-05-02T04:54:39.462Z,35
2017-05-02T04:55:20.218Z,35
2017-05-02T04:56:01.115Z,40
2017-05-02T04:56:41.106Z,40
2017-05-02T04:57:21.526Z,45
2017-05-02T04:58:02.765Z,45
2017-05-02T04:58:43.159Z,45
2017-05-02T04:59:23.586Z,45
2017-05-02T05:00:05.955Z,50
2017-05-02T05:00:46.384Z,50
2017-05-02T05:01:26.794Z,50
2017-05-02T05:02:07.239Z,50
2017-05-02T05:02:47.655Z,50
2017-05-02T05:03:28.037Z,50
2017-05-02T05:04:08.482Z,45
2017-05-02T05:04:48.850Z,45
2017-05-02T05:05:29.278Z,45
2017-05-02T05:06:09.717Z,45
2017-05-02T05:06:52.799Z,45
2017-05-02T05:07:33.213Z,45
2017-05-02T05:08:13.628Z,45
2017-05-02T05:08:54.039Z,45
2017-05-02T05:09:34.460Z,50
2017-05-02T05:10:14.895Z,50
2017-05-02T05:10:55.239Z,50
2017-05-02T05:11:35.722Z,50
2017-05-02T05:12:16.098Z,50
2017-05-02T05:12:56.537Z,50
2017-05-02T05:13:36.964Z,50
2017-05-02T05:14:17.370Z,50
2017-05-02T05:14:58.734Z,50
2017-05-02T05:15:39.116Z,50
2017-05-02T05:16:20.211Z,50
2017-05-02T05:17:00.634Z,45
2017-05-02T05:17:41.049Z,45
2017-05-02T05:18:21.472Z,40
2017-05-02T05:19:01.891Z,35
2017-05-02T05:19:43.242Z,35
2017-05-02T05:20:23.657Z,35
2017-05-02T05:21:04.067Z,35
2017-05-02T05:21:44.492Z,35
2017-05-02T05:22:24.917Z,35
2017-05-02T05:23:05.318Z,40
2017-05-02T05:23:46.273Z,40
2017-05-02T05:24:26.606Z,45
2017-05-02T05:25:07.058Z,45
2017-05-02T05:25:47.483Z,40
2017-05-02T05:26:27.910Z,35
2017-05-02T05:27:08.284Z,30
2017-05-02T05:27:48.722Z,25
2017-05-02T05:28:29.148Z,25
2017-05-02T05:29:10.410Z,25
2017-05-02T05:29:50.850Z,25
2017-05-02T05:30:33.156Z,30
2017-05-02T05:31:13.586Z,25
2017-05-02T05:31:53.997Z,25
2017-05-02T05:32:35.204Z,25
2017-05-02T05:33:15.606Z,30
2017-05-02T05:33:56.018Z,30
2017-05-02T05:34:36.491Z,30
2017-05-02T05:35:17.809Z,35
2017-05-02T05:35:58.234Z,40
2017-05-02T05:36:39.505Z,45
2017-05-02T05:37:21.473Z,50
2017-05-02T05:38:02.756Z,50
2017-05-02T05:38:43.168Z,50
2017-05-02T05:39:23.540Z,50
2017-05-02T05:40:04.023Z,45
2017-05-02T05:40:44.407Z,45
2017-05-02T05:41:24.812Z,45
2017-05-02T05:42:05.237Z,35
2017-05-02T05:42:45.611Z,25
2017-05-02T05:43:26.933Z,30
2017-05-02T05:44:08.386Z,30
2017-05-02T05:44:49.410Z,40
2017-05-02T05:45:29.797Z,45
2017-05-02T05:46:10.220Z,45
2017-05-02T05:46:50.629Z,55
2017-05-02T05:47:31.912Z,70
2017-05-02T05:48:12.355Z,80
2017-05-02T05:48:52.773Z,90
2017-05-02T05:49:33.838Z,100
2017-05-02T05:50:15.237Z,105
2017-05-02T05:50:55.655Z,110
2017-05-02T05:51:36.438Z,110
2017-05-02T05:52:16.854Z,105
2017-05-02T05:52:57.274Z,100
2017-05-02T05:53:38.162Z,95
2017-05-02T05:54:18.543Z,85
2017-05-02T05:54:59.119Z,70
2017-05-02T05:55:39.712Z,65
2017-05-02T05:56:20.042Z,60
2017-05-02T05:57:00.867Z,55
2017-05-02T05:57:41.079Z,50
2017-05-02T05:58:22.316Z,55
2017-05-02T05:59:02.705Z,50
2017-05-02T05:59:43.113Z,50
2017-05-02T06:00:24.393Z,65
2017-05-02T06:01:04.776Z,70
2017-05-02T06:01:46.205Z,75
2017-05-02T06:02:27.180Z,70
2017-05-02T06:03:07.650Z,85
2017-05-02T06:03:48.767Z,85
2017-05-02T06:04:29.184Z,80
2017-05-02T06:05:11.324Z,70
2017-05-02T06:05:51.773Z,60
2017-05-02T06:06:33.959Z,55
2017-05-02T06:07:14.483Z,65
2017-05-02T06:07:54.832Z,80
2017-05-02T06:08:35.837Z,90
2017-05-02T06:09:16.262Z,95
2017-05-02T06:09:56.702Z,105
2017-05-02T06:10:37.232Z,105
2017-05-02T06:11:18.318Z,105
2017-05-02T06:11:58.704Z,110
2017-05-02T06:12:39.633Z,110
2017-05-02T06:13:20.053Z,110
2017-05-02T06:14:00.485Z,105
2017-05-02T06:14:40.897Z,105
2017-05-02T06:15:21.312Z,95
2017-05-02T06:16:02.494Z,100
2017-05-02T06:16:42.938Z,100
2017-05-02T06:17:23.371Z,110
2017-05-02T06:18:03.792Z,125
2017-05-02T06:18:44.202Z,130
2017-05-02T06:19:24.645Z,125
2017-05-02T06:20:05.785Z,115
2017-05-02T06:20:46.883Z,100
2017-05-02T06:21:27.363Z,80
2017-05-02T06:22:07.719Z,75
2017-05-02T06:22:48.115Z,80
2017-05-02T06:23:28.568Z,75
2017-05-02T06:24:09.011Z,70
2017-05-02T06:24:49.409Z,60
2017-05-02T06:25:29.852Z,55
2017-05-02T06:26:10.236Z,65
2017-05-02T06:26:51.405Z,70
2017-05-02T06:27:31.769Z,85
2017-05-02T06:28:12.195Z,80
2017-05-02T06:28:52.645Z,80
2017-05-02T06:29:33.071Z,95
2017-05-02T06:30:13.490Z,105
2017-05-02T06:30:53.968Z,95
2017-05-02T06:31:35.262Z,105
2017-05-02T06:32:15.658Z,100
2017-05-02T06:32:56.054Z,90
2017-05-02T06:33:36.416Z,90
2017-05-02T06:34:16.844Z,105
2017-05-02T06:34:57.217Z,110
2017-05-02T06:35:37.670Z,105
2017-05-02T06:36:18.131Z,100
2017-05-02T06:36:58.564Z,95
2017-05-02T06:37:38.985Z,100
2017-05-02T06:38:19.391Z,95
2017-05-02T06:39:00.681Z,85
2017-05-02T06:39:41.799Z,95
2017-05-02T06:40:22.204Z,95
2017-05-02T06:41:03.266Z,90
2017-05-02T06:41:44.532Z,90
2017-05-02T06:42:24.943Z,95
2017-05-02T06:43:06.179Z,100
2017-05-02T06:43:46.598Z,100
2017-05-02T06:44:27.020Z,100
2017-05-02T06:45:07.423Z,95
2017-05-02T06:45:47.811Z,90
2017-05-02T06:46:28.222Z,95
2017-05-02T06:47:08.620Z,100
2017-05-02T06:47:49.084Z,110
2017-05-02T06:48:29.503Z,105
2017-05-02T06:49:09.890Z,120
2017-05-02T06:49:50.281Z,125
2017-05-02T06:50:30.736Z,130
2017-05-02T06:51:11.330Z,115
2017-05-02T06:51:52.454Z,120
2017-05-02T06:52:32.772Z,110
2017-05-02T06:53:13.136Z,120
2017-05-02T06:53:53.579Z,125
2017-05-02T06:54:34.063Z,125
2017-05-02T06:55:14.451Z,120
2017-05-02T06:55:54.873Z,110
2017-05-02T06:56:35.305Z,105
2017-05-02T06:58:48.953Z,115
2017-05-02T06:59:29.247Z,130
2017-05-02T07:00:09.633Z,130
2017-05-02T07:00:50.121Z,130
2017-05-02T07:01:30.413Z,125
2017-05-02T07:02:10.839Z,115
2017-05-02T07:02:51.235Z,100
2017-05-02T07:03:31.580Z,95
2017-05-02T07:04:11.986Z,90
2017-05-02T07:04:52.384Z,90
2017-05-02T07:05:32.788Z,95
2017-05-02T07:06:13.188Z,95
2017-05-02T07:06:53.655Z,95
2017-05-02T07:07:34.035Z,95
2017-05-02T07:08:14.423Z,105
2017-05-02T07:08:54.920Z,110
2017-05-02T07:09:35.331Z,105
2017-05-02T07:10:15.715Z,100
2017-05-02T07:10:56.112Z,90
2017-05-02T07:11:36.503Z,80
2017-05-02T07:12:16.914Z,85
2017-05-02T07:12:58.212Z,95
2017-05-02T07:13:38.595Z,95
2017-05-02T07:14:19.075Z,95
2017-05-02T07:14:59.533Z,90
2017-05-02T07:15:40.011Z,90
2017-05-02T07:16:23.228Z,85
2017-05-02T07:17:03.621Z,100
2017-05-02T07:17:44.065Z,100
2017-05-02T07:18:24.515Z,110
2017-05-02T07:19:05.476Z,100
2017-05-02T07:19:45.906Z,110
2017-05-02T07:20:26.363Z,115
2017-05-02T07:21:06.829Z,120
2017-05-02T07:21:49.081Z,115
2017-05-02T07:22:29.501Z,115
2017-05-02T07:23:09.929Z,120
2017-05-02T07:23:50.357Z,110
2017-05-02T07:24:30.799Z,100
2017-05-02T07:25:11.219Z,105
2017-05-02T07:25:51.712Z,115
2017-05-02T07:26:32.212Z,115
2017-05-02T07:27:12.652Z,110
2017-05-02T07:27:53.044Z,110
2017-05-02T07:28:33.436Z,115
2017-05-02T07:29:13.927Z,120
2017-05-02T07:29:54.341Z,130
2017-05-02T07:30:34.790Z,125
2017-05-02T07:31:15.189Z,120
2017-05-02T07:31:55.584Z,125
2017-05-02T07:32:36.015Z,140
2017-05-02T07:33:16.405Z,125
2017-05-02T07:33:56.840Z,105
2017-05-02T07:34:37.194Z,110
2017-05-02T07:35:17.613Z,115
2017-05-02T07:35:58.016Z,125
2017-05-02T07:36:39.396Z,120
2017-05-02T07:37:20.532Z,140
2017-05-02T07:38:01.245Z,140
2017-05-02T07:38:42.825Z,130
2017-05-02T07:39:23.603Z,130
2017-05-02T07:40:04.536Z,110
2017-05-02T07:40:46.388Z,100
2017-05-02T07:41:27.337Z,95
2017-05-02T07:42:07.662Z,105
2017-05-02T07:42:48.634Z,105
2017-05-02T07:43:29.862Z,110
2017-05-02T07:44:10.249Z,105
2017-05-02T07:46:38.308Z,105
2017-05-02T07:48:52.606Z,135
2017-05-02T07:49:33.595Z,130
2017-05-02T07:50:14.659Z,130
2017-05-02T07:53:11.340Z,130
2017-05-02T07:55:26.697Z,145
2017-05-02T07:56:07.501Z,155
2017-05-02T07:56:47.924Z,140
2017-05-02T07:57:31.882Z,140
2017-05-02T07:58:12.835Z,130
2017-05-02T07:58:53.223Z,115
2017-05-02T07:59:34.291Z,120
2017-05-02T08:00:14.704Z,125
2017-05-02T08:00:55.669Z,120
2017-05-02T08:01:37.493Z,115
2017-05-02T08:02:19.612Z,125
2017-05-02T08:03:00.625Z,130
2017-05-02T08:03:41.536Z,125
2017-05-02T08:04:21.947Z,120
2017-05-02T08:05:02.279Z,125
2017-05-02T08:05:42.797Z,120
2017-05-02T08:06:24.075Z,120
2017-05-02T08:07:04.949Z,140
2017-05-02T08:07:45.390Z,145
2017-05-02T08:08:25.822Z,160
2017-05-02T08:09:07.749Z,170
2017-05-02T08:09:48.172Z,175
2017-05-02T08:10:28.599Z,195
2017-05-02T08:11:09.027Z,210
2017-05-02T08:11:49.411Z,250
2017-05-02T08:12:30.692Z,270
2017-05-02T08:13:11.143Z,255
2017-05-02T08:13:52.006Z,225
2017-05-02T08:14:33.465Z,225
2017-05-02T08:15:14.791Z,210
2017-05-02T08:15:55.163Z,235
2017-05-02T08:16:37.138Z,215
2017-05-02T08:17:17.532Z,185
2017-05-02T08:17:59.619Z,165
2017-05-02T08:18:39.976Z,160
2017-05-02T08:20:56.350Z,220
2017-05-02T08:21:36.548Z,200
2017-05-02T08:22:16.931Z,180
2017-05-02T08:22:58.211Z,205
2017-05-02T08:23:40.071Z,185
2017-05-02T08:24:20.506Z,200
2017-05-02T08:25:01.880Z,200
2017-05-02T08:25:42.347Z,180
2017-05-02T08:26:23.673Z,195
2017-05-02T08:27:04.024Z,205
2017-05-02T08:27:44.490Z,220
2017-05-02T08:28:24.878Z,210
2017-05-02T08:29:05.306Z,190
2017-05-02T08:29:45.795Z,185
2017-05-02T08:30:26.199Z,180
2017-05-02T08:31:07.324Z,195
2017-05-02T08:31:47.744Z,205
2017-05-02T08:32:28.632Z,225
2017-05-02T08:33:09.818Z,210
2017-05-02T08:33:50.264Z,190
2017-05-02T08:34:32.074Z,170
2017-05-02T08:35:12.562Z,180
2017-05-02T08:35:53.662Z,170
2017-05-02T08:36:34.037Z,175
2017-05-02T08:37:14.450Z,160
2017-05-02T08:37:54.907Z,180
2017-05-02T08:38:35.379Z,170
2017-05-02T08:39:15.809Z,185
2017-05-02T08:39:56.238Z,180
2017-05-02T08:40:37.327Z,180
2017-05-02T08:41:19.159Z,190
2017-05-02T08:42:00.594Z,190
2017-05-02T08:42:41.842Z,175
2017-05-02T08:43:22.308Z,170
2017-05-02T08:44:02.712Z,170
2017-05-02T08:44:43.107Z,180
2017-05-02T08:45:24.622Z,180
2017-05-02T08:46:05.010Z,190
2017-05-02T08:46:45.920Z,175
2017-05-02T08:47:26.395Z,150
2017-05-02T08:48:06.774Z,145
2017-05-02T08:48:47.198Z,175
2017-05-02T08:49:28.341Z,195
2017-05-02T08:50:09.564Z,175
2017-05-02T08:50:50.031Z,140
2017-05-02T08:51:30.424Z,125
2017-05-02T08:52:10.845Z,160
2017-05-02T08:52:51.248Z,160
2017-05-02T08:53:31.691Z,165
2017-05-02T08:54:13.665Z,185
2017-05-02T08:54:54.078Z,215
2017-05-02T08:55:34.533Z,220
2017-05-02T08:56:15.004Z,240
2017-05-02T08:56:55.371Z,185
2017-05-02T08:57:36.695Z,205
2017-05-02T08:58:17.143Z,210
2017-05-02T08:58:57.563Z,190
2017-05-02T08:59:37.968Z,185
2017-05-02T09:00:18.407Z,200
2017-05-02T09:00:58.779Z,190
2017-05-02T09:01:39.260Z,185
2017-05-02T09:02:20.247Z,175
2017-05-02T09:03:01.313Z,190
2017-05-02T09:03:42.561Z,190
2017-05-02T09:04:23.658Z,160
2017-05-02T09:05:04.651Z,150
2017-05-02T09:05:45.059Z,155
2017-05-02T09:06:25.423Z,155
2017-05-02T09:07:05.872Z,155
2017-05-02T09:07:50.614Z,155
2017-05-02T09:08:31.012Z,160
2017-05-02T09:09:11.471Z,145
2017-05-02T09:09:53.384Z,140
2017-05-02T09:10:34.578Z,140
2017-05-02T09:34:31.571Z,155
2017-05-02T09:35:12.296Z,150
2017-05-02T09:35:52.703Z,140
2017-05-02T09:36:33.183Z,130
2017-05-02T09:37:13.631Z,125
2017-05-02T09:37:56.558Z,135
2017-05-02T09:38:37.984Z,130
2017-05-02T09:39:18.973Z,135
2017-05-02T09:39:59.391Z,135
2017-05-02T09:40:44.318Z,135
2017-05-02T09:41:24.714Z,135
2017-05-02T09:42:06.782Z,140
2017-05-02T09:42:48.048Z,140
2017-05-02T09:43:29.433Z,155
2017-05-02T09:44:10.534Z,155
2017-05-02T09:44:50.981Z,140
2017-05-02T09:45:32.290Z,145
2017-05-02T09:46:12.735Z,140
2017-05-02T09:46:54.708Z,135
2017-05-02T09:47:37.198Z,140
2017-05-02T09:48:17.672Z,155
2017-05-02T09:48:58.835Z,145
2017-05-02T09:49:39.875Z,135
2017-05-02T09:50:23.715Z,140
2017-05-02T09:51:04.872Z,160
2017-05-02T09:51:48.289Z,160
2017-05-02T09:52:28.722Z,165
2017-05-02T09:53:09.114Z,200
2017-05-02T09:53:49.494Z,210
2017-05-02T09:54:29.880Z,205
2017-05-02T09:55:11.745Z,210
2017-05-02T09:55:52.831Z,185
2017-05-02T09:56:34.261Z,195
2017-05-02T09:57:14.647Z,175
2017-05-02T09:57:55.864Z,190
2017-05-02T09:58:36.211Z,205
2017-05-02T09:59:16.666Z,215
2017-05-02T09:59:58.080Z,250
2017-05-02T10:00:39.319Z,260
2017-05-02T10:01:20.312Z,265
2017-05-02T10:02:00.752Z,270
2017-05-02T10:02:41.134Z,275
2017-05-02T10:03:21.541Z,275
2017-05-02T10:04:01.977Z,300
2017-05-02T10:04:42.396Z,315
2017-05-02T10:05:24.255Z,295
2017-05-02T10:06:04.704Z,285
2017-05-02T10:06:45.136Z,280
2017-05-02T10:07:25.586Z,350
2017-05-02T10:08:06.551Z,365
2017-05-02T10:08:47.960Z,360
2017-05-02T10:09:28.413Z,315
2017-05-02T10:10:09.772Z,300
2017-05-02T10:10:51.958Z,260
2017-05-02T10:11:32.413Z,240
2017-05-02T10:12:12.797Z,235
2017-05-02T10:12:53.252Z,225
2017-05-02T10:13:33.586Z,220
2017-05-02T10:14:15.011Z,200
2017-05-02T10:14:55.425Z,170
2017-05-02T10:17:23.890Z,160
2017-05-02T10:18:05.630Z,175
2017-05-02T10:18:46.070Z,185
2017-05-02T10:19:27.187Z,185
2017-05-02T10:20:07.533Z,175
2017-05-02T10:20:48.486Z,195
2017-05-02T10:21:28.898Z,200
2017-05-02T10:22:10.149Z,170
2017-05-02T10:24:23.872Z,165
2017-05-02T10:25:04.063Z,155
2017-05-02T10:25:44.496Z,140
2017-05-02T10:26:24.836Z,140
2017-05-02T10:27:05.248Z,125
2017-05-02T10:27:45.625Z,135
2017-05-02T10:28:27.749Z,140
2017-05-02T10:29:08.110Z,135
2017-05-02T10:29:48.534Z,170
2017-05-02T10:30:29.268Z,170
2017-05-02T10:31:09.658Z,165
2017-05-02T10:31:50.630Z,175
2017-05-02T10:32:31.031Z,175
2017-05-02T10:33:14.386Z,175
2017-05-02T10:33:54.779Z,150
2017-05-02T10:34:35.776Z,160
2017-05-02T10:35:16.141Z,150
2017-05-02T10:35:57.307Z,150
2017-05-02T10:36:38.496Z,150
2017-05-02T10:37:20.832Z,160
2017-05-02T10:38:01.288Z,150
2017-05-02T10:38:43.474Z,145
2017-05-02T10:39:23.952Z,140
2017-05-02T10:40:06.236Z,125
2017-05-02T10:40:48.525Z,140